»·PEaware :: GTI121 KLAS-KRNO

GTI121 :: KLAS-KRNO

FLIGHT INFORMATION

Flight Status: Arrived
Operator:
Atlas Air
More flights by this operator :: More flights under this callsign
Pilot: Ryan B. (8502)
Aircraft: BOEING 767-200
(B762)
More flights by this aircraft type
Origin: KLAS McCarran Intl
United States
Destination: KRNO Reno/Tahoe Intl
United States
More flights between these airports :: More routes between these airports
Route: +SHEAD1 KENNO KENNO2
File this flight plan on PilotEdge
Remarks:
Altitude:
(Current/Filed)
40,000ft
Speed:
(Current/Filed)
442kts
Departed: 14-Dec-18 01:43 PM
Arrived: 14-Dec-18 02:40 PM
Distance/Time
Traveled:
300nm/0:57
Distance/Time
To Go:
Arrived

Flight Plot

Page will automatically refresh every two minutes.

Flight plan parsing failed; only flown route is shown


Map Options




Map Legend


Flown Route
Filed Route
Departure Airport
Arrival Airport
Navaid (VOR, NDB)
Fix

Horizontal Profiles

Position Reports

Time Latitude Longitude Heading Altitude Ground
Speed
14-Dec-18 12:52 36.084017 -115.169141 90 2168ft 0kts
14-Dec-18 12:53 36.084017 -115.169141 90 2168ft 0kts
14-Dec-18 12:54 36.084017 -115.169141 90 2168ft 0kts
14-Dec-18 12:55 36.084017 -115.169141 90 2168ft 0kts
14-Dec-18 12:55 36.084017 -115.169141 90 2168ft 0kts
14-Dec-18 12:57 36.084017 -115.169141 90 2168ft 0kts
14-Dec-18 12:57 36.084017 -115.169141 90 2168ft 0kts
14-Dec-18 12:58 36.084017 -115.169141 90 2168ft 0kts
14-Dec-18 12:59 36.084017 -115.169141 90 2168ft 0kts
14-Dec-18 13:00 36.084017 -115.169141 90 2168ft 0kts
14-Dec-18 13:01 36.084017 -115.169141 90 2168ft 0kts
14-Dec-18 13:02 36.084017 -115.169141 90 2168ft 0kts
14-Dec-18 13:03 36.084017 -115.169141 90 2168ft 0kts
14-Dec-18 13:04 36.084017 -115.169141 90 2168ft 0kts
14-Dec-18 13:05 36.084017 -115.169141 90 2168ft 0kts
14-Dec-18 13:06 36.084017 -115.169141 90 2168ft 0kts
14-Dec-18 13:07 36.084017 -115.169141 90 2168ft 0kts
14-Dec-18 13:08 36.084017 -115.169141 90 2168ft 0kts
14-Dec-18 13:09 36.084017 -115.169141 90 2168ft 0kts
14-Dec-18 13:10 36.084017 -115.169141 90 2168ft 0kts
14-Dec-18 13:11 36.084017 -115.169141 90 2168ft 0kts
14-Dec-18 13:12 36.084017 -115.169141 90 2168ft 0kts
14-Dec-18 13:13 36.084017 -115.169141 90 2168ft 0kts
14-Dec-18 13:14 36.084017 -115.169141 90 2168ft 0kts
14-Dec-18 13:15 36.084017 -115.169141 90 2168ft 0kts
14-Dec-18 13:16 36.084017 -115.169141 90 2168ft 0kts
14-Dec-18 13:17 36.084017 -115.169141 90 2168ft 0kts
14-Dec-18 13:18 36.084017 -115.169141 90 2168ft 0kts
14-Dec-18 13:19 36.084017 -115.169141 90 2168ft 0kts
14-Dec-18 13:20 36.084017 -115.169141 90 2168ft 0kts
14-Dec-18 13:21 36.084017 -115.169141 90 2168ft 0kts
14-Dec-18 13:22 36.084017 -115.169141 90 2168ft 0kts
14-Dec-18 13:23 36.084017 -115.169141 90 2168ft 0kts
14-Dec-18 13:24 36.084017 -115.169141 90 2168ft 0kts
14-Dec-18 13:25 36.084017 -115.169141 90 2168ft 0kts
14-Dec-18 13:26 36.084017 -115.169141 90 2168ft 0kts
14-Dec-18 13:27 36.084017 -115.169141 90 2168ft 0kts
14-Dec-18 13:28 36.084017 -115.169141 90 2168ft 0kts
14-Dec-18 13:29 36.084017 -115.169141 90 2168ft 0kts
14-Dec-18 13:30 36.084017 -115.169141 90 2168ft 0kts
14-Dec-18 13:31 36.084017 -115.169141 90 2168ft 0kts
14-Dec-18 13:32 36.084017 -115.169141 90 2168ft 0kts
14-Dec-18 13:33 36.084017 -115.169141 90 2168ft 0kts
14-Dec-18 13:34 36.084017 -115.169141 90 2168ft 0kts
14-Dec-18 13:35 36.084017 -115.169141 90 2168ft 0kts
14-Dec-18 13:36 36.084017 -115.169140 90 2168ft 0kts
14-Dec-18 13:37 36.084017 -115.169140 90 2168ft 0kts
14-Dec-18 13:38 36.085607 -115.167511 59 2159ft 14kts
14-Dec-18 13:39 36.090933 -115.163786 25 2132ft 39kts
14-Dec-18 13:40 36.098886 -115.159262 25 2101ft 16kts
14-Dec-18 13:41 36.099646 -115.156675 127 2091ft 13kts
14-Dec-18 13:42 36.085695 -115.164339 202 2160ft 148kts
14-Dec-18 13:43 36.045483 -115.187178 205 4249ft 176kts
14-Dec-18 13:44 36.004854 -115.228161 242 6193ft 217kts
14-Dec-18 13:45 35.971947 -115.299055 235 8706ft 264kts
14-Dec-18 13:46 35.918291 -115.365685 225 11617ft 296kts
14-Dec-18 13:47 35.886436 -115.457758 270 14229ft 332kts
14-Dec-18 13:48 35.889026 -115.577339 269 16685ft 366kts
14-Dec-18 13:49 35.891412 -115.705053 268 19281ft 389kts
14-Dec-18 13:50 35.893562 -115.833223 267 21968ft 401kts
14-Dec-18 13:51 35.907288 -115.964483 287 23451ft 427kts
14-Dec-18 13:52 35.985616 -116.073217 318 24768ft 450kts
14-Dec-18 13:53 36.083215 -116.162285 317 26983ft 465kts
14-Dec-18 13:54 36.178311 -116.250325 317 28937ft 480kts
14-Dec-18 13:55 36.280530 -116.345372 316 31316ft 482kts
14-Dec-18 13:56 36.385667 -116.443533 316 33281ft 480kts
14-Dec-18 13:57 36.491695 -116.542892 316 34761ft 478kts
14-Dec-18 13:58 36.597145 -116.642048 315 35867ft 476kts
14-Dec-18 13:59 36.700546 -116.739614 315 36896ft 474kts
14-Dec-18 14:00 36.805035 -116.838551 315 37826ft 473kts
14-Dec-18 14:01 36.908294 -116.936632 315 38989ft 463kts
14-Dec-18 14:02 37.010368 -117.031975 320 39997ft 459kts
14-Dec-18 14:03 37.108125 -117.128415 312 40238ft 451kts
14-Dec-18 14:04 37.204139 -117.230546 313 40231ft 456kts
14-Dec-18 14:05 37.309767 -117.321211 314 40228ft 460kts
14-Dec-18 14:06 37.405434 -117.424626 312 40220ft 461kts
14-Dec-18 14:07 37.504699 -117.527684 320 40209ft 472kts
14-Dec-18 14:08 37.615843 -117.616096 321 40234ft 476kts
14-Dec-18 14:09 37.723406 -117.701505 320 40219ft 475kts
14-Dec-18 14:10 37.834791 -117.790215 320 40204ft 476kts
14-Dec-18 14:11 37.945920 -117.879010 320 40190ft 475kts
14-Dec-18 14:12 38.056297 -117.967529 320 40209ft 475kts
14-Dec-18 14:13 38.166534 -118.056253 320 40174ft 475kts
14-Dec-18 14:14 38.277098 -118.145548 320 38078ft 471kts
14-Dec-18 14:15 38.385539 -118.233488 320 35829ft 467kts
14-Dec-18 14:16 38.482245 -118.340254 309 33588ft 474kts
14-Dec-18 14:17 38.575355 -118.454946 309 31368ft 478kts
14-Dec-18 14:18 38.670400 -118.572771 309 29165ft 480kts
14-Dec-18 14:19 38.756078 -118.679283 309 27005ft 461kts
14-Dec-18 14:20 38.846143 -118.791421 309 25016ft 450kts
14-Dec-18 14:21 38.933277 -118.900271 308 22773ft 438kts
14-Dec-18 14:22 39.018431 -119.007047 307 20377ft 425kts
14-Dec-18 14:23 39.099906 -119.109618 307 18264ft 411kts
14-Dec-18 14:24 39.179228 -119.209787 307 16353ft 399kts
14-Dec-18 14:25 39.255569 -119.306321 308 13845ft 396kts
14-Dec-18 14:26 39.329498 -119.399886 308 12047ft 349kts
14-Dec-18 14:27 39.400933 -119.474266 317 10696ft 338kts
14-Dec-18 14:28 39.470282 -119.538896 315 10017ft 268kts
14-Dec-18 14:29 39.538598 -119.577815 337 9978ft 278kts
14-Dec-18 14:30 39.612707 -119.605926 337 9981ft 279kts
14-Dec-18 14:31 39.686456 -119.633814 338 9431ft 277kts
14-Dec-18 14:32 39.743455 -119.676271 282 8761ft 237kts
14-Dec-18 14:33 39.733953 -119.749458 224 8177ft 201kts
14-Dec-18 14:34 39.683804 -119.768603 184 7565ft 193kts
14-Dec-18 14:35 39.633070 -119.768804 184 6846ft 171kts
14-Dec-18 14:36 39.591959 -119.768930 184 5960ft 131kts
14-Dec-18 14:37 39.558669 -119.768992 182 5369ft 113kts
14-Dec-18 14:38 39.526847 -119.769042 181 4758ft 116kts
14-Dec-18 14:39 39.499013 -119.769289 182 4411ft 40kts

Navigation Log

Ident Type
Flight plan parsing failed, navigation log unavailable